Port Allegany, PA

12:28 AM EDT on April 25, 2015 (GMT -0400)
Annin Township | | Change Station
CLOSE
Current Station
Personal Weather Station
Location: Turtlepoint, PA
Elevation: 1578 ft
Nearby Weather Stations

Elev 1578 ft 41.88 °N, 78.30 °W | Updated 8 seconds ago

Clear
Clear
27.3 °F
Feels Like 27 °F
N
0.8
Wind Variable Wind from NE
Gusts 3.1 mph

Today
High -- | Low -- °F
--% Chance of Precip.
Yesterday
High -- | Low -- °F
Precip. -- in
6:18 AM 8:04 PM
Waxing Crescent, 42% visible
Pressure 30.01 in
Visibility 10.0 miles
Clouds Clear
Windchill 27 °F
Dew Point -12 °F
Humidity 17%
Rainfall 0.00 in
Snow Depth Not available.
UV 0 out of 12
Pollen 7.80 out of 12
Air Quality Not available.
Flu Activity Sporadic
METAR KBFD 250353Z AUTO 29005KT 10SM CLR M01/M08 A2995 RMK AO2 SLP160 T10111083

More Conditions Fewer Conditions

Pressure 30.01 in
Visibility 10.0 miles
Clouds Clear
Windchill 27 °F
Dew Point -12 °F
Humidity 17%
Rainfall 0.00 in
Snow Depth Not available.
UV 0 out of 12
Pollen 7.80 out of 12
Air Quality Not available.
Flu Activity Sporadic
METAR KBFD 250353Z AUTO 29005KT 10SM CLR M01/M08 A2995 RMK AO2 SLP160 T10111083

More Conditions Fewer Conditions

10-Day Weather Forecast

Almanac

Astronomy

Apr. 25, 2015 Rise Set
Actual Time
Civil Twilight
Nautical Twilight
Astronomical Twilight
Moon
Length of Visible Light
Length of Day
Tomorrow will be .
, % of the Moon is Illuminated

Today's Extremes

State Highs State Lows

Community

WunderPhotos

Upload Photos

1,816,603 photos uploaded!

WunderBlogs® & News

Nearby

Air Quality

  Air Quality AQ Index Pollutant
Not available.

Snow Depth

Station Depth Elevation

Earthquake Activity

City Distance Mag. Time & Date
Minimum magnitude displayed is 2.5.

Coastal Water Temperatures

Place Temperature

Stations

Nearby Weather Stations

Station Location Temp. Windchill Dew Point Humidity Wind Precip. Elev Updated Type